createdAt,value
2022-10-14T00:01:24.996Z,97524.00
2022-10-14T00:03:54.569Z,97533.00
2022-10-14T00:06:32.243Z,97542.00
2022-10-14T00:09:08.816Z,97544.00
2022-10-14T00:11:38.190Z,97543.00
2022-10-14T00:14:14.258Z,97521.00
2022-10-14T00:16:45.272Z,97527.00
2022-10-14T00:19:13.042Z,97533.00
2022-10-14T00:21:44.290Z,97536.00
2022-10-14T00:24:13.568Z,97532.00
2022-10-14T00:26:41.362Z,97533.00
2022-10-14T00:29:13.908Z,97529.00
2022-10-14T00:31:41.213Z,97536.00
2022-10-14T00:34:08.221Z,97518.00
2022-10-14T00:36:35.093Z,97533.00
2022-10-14T00:39:01.902Z,97531.00
2022-10-14T00:41:33.047Z,97527.00
2022-10-14T00:44:28.379Z,97525.00
2022-10-14T00:46:56.557Z,97529.00
2022-10-14T00:49:40.895Z,97525.00
2022-10-14T00:52:19.047Z,97520.00
2022-10-14T00:55:08.722Z,97530.00
2022-10-14T00:57:37.885Z,97533.00
2022-10-14T01:00:16.458Z,97537.00
2022-10-14T01:02:43.458Z,97529.00
2022-10-14T01:05:13.885Z,97524.00
2022-10-14T01:08:05.541Z,97528.00
2022-10-14T01:10:56.728Z,97533.00
2022-10-14T01:13:41.491Z,97517.00
2022-10-14T01:16:24.479Z,97514.00
2022-10-14T01:19:00.628Z,97514.00
2022-10-14T01:21:29.123Z,97524.00
2022-10-14T01:24:33.033Z,97510.00
2022-10-14T01:27:23.771Z,97501.00
2022-10-14T01:30:17.221Z,97498.00
2022-10-14T01:33:10.021Z,97488.00
2022-10-14T01:36:15.224Z,97493.00
2022-10-14T01:38:56.953Z,97495.00
2022-10-14T01:41:43.636Z,97494.00
2022-10-14T01:44:14.035Z,97484.00
2022-10-14T01:46:47.194Z,97478.00
2022-10-14T01:49:26.990Z,97490.00
2022-10-14T01:52:27.352Z,97478.00
2022-10-14T01:55:00.266Z,97487.00
2022-10-14T01:57:33.657Z,97468.00
2022-10-14T02:00:02.910Z,97467.00
2022-10-14T02:02:42.403Z,97463.00
2022-10-14T02:05:40.465Z,97463.00
2022-10-14T02:08:36.171Z,97458.00
2022-10-14T02:11:15.723Z,97449.00
2022-10-14T02:14:11.937Z,97469.00
2022-10-14T02:16:49.418Z,97452.00
2022-10-14T02:19:37.594Z,97441.00
2022-10-14T02:22:20.535Z,97448.00
2022-10-14T02:24:55.444Z,97440.00
2022-10-14T02:27:26.327Z,97443.00
2022-10-14T02:29:57.756Z,97425.00
2022-10-14T02:32:28.258Z,97437.00
2022-10-14T02:34:59.141Z,97437.00
2022-10-14T02:37:30.203Z,97432.00
2022-10-14T02:40:25.523Z,97427.00
2022-10-14T02:42:54.468Z,97436.00
2022-10-14T02:45:25.122Z,97424.00
2022-10-14T02:47:51.948Z,97416.00
2022-10-14T02:50:19.114Z,97421.00
2022-10-14T02:52:46.474Z,97430.00
2022-10-14T02:55:14.370Z,97416.00
2022-10-14T02:57:42.015Z,97400.00
2022-10-14T03:00:09.814Z,97403.00
2022-10-14T03:02:36.954Z,97398.00
2022-10-14T03:05:05.078Z,97401.00
2022-10-14T03:07:32.082Z,97398.00
2022-10-14T03:10:04.235Z,97416.00
2022-10-14T03:12:34.749Z,97397.00
2022-10-14T03:15:01.752Z,97401.00
2022-10-14T03:17:30.693Z,97401.00
2022-10-14T03:20:04.542Z,97391.00
2022-10-14T03:22:35.379Z,97395.00
2022-10-14T03:25:02.951Z,97396.00
2022-10-14T03:27:53.216Z,97402.00
2022-10-14T03:30:29.500Z,97402.00
2022-10-14T03:33:03.181Z,97405.00
2022-10-14T03:35:43.634Z,97404.00
2022-10-14T03:38:14.186Z,97408.00
2022-10-14T03:40:41.642Z,97406.00
2022-10-14T03:43:11.741Z,97397.00
2022-10-14T03:45:47.890Z,97395.00
2022-10-14T03:48:17.812Z,97396.00
2022-10-14T03:50:47.205Z,97390.00
2022-10-14T03:53:14.319Z,97403.00
2022-10-14T03:55:43.195Z,97398.00
2022-10-14T03:58:12.380Z,97391.00
2022-10-14T04:00:46.720Z,97388.00
2022-10-14T04:03:30.326Z,97388.00
2022-10-14T04:05:57.321Z,97399.00
2022-10-14T04:08:26.544Z,97389.00
2022-10-14T04:10:58.641Z,97389.00
2022-10-14T04:13:29.052Z,97399.00
2022-10-14T04:15:56.355Z,97390.00
2022-10-14T04:18:28.219Z,97389.00
2022-10-14T04:21:11.752Z,97385.00
2022-10-14T04:23:40.030Z,97376.00
2022-10-14T04:26:16.435Z,97386.00
2022-10-14T04:28:45.554Z,97369.00
2022-10-14T04:31:28.830Z,97363.00
2022-10-14T04:34:00.910Z,97374.00
2022-10-14T04:36:33.596Z,97379.00
2022-10-14T04:39:02.257Z,97374.00
2022-10-14T04:41:29.272Z,97378.00
2022-10-14T04:43:58.504Z,97376.00
2022-10-14T04:46:48.243Z,97370.00
2022-10-14T04:49:16.458Z,97371.00
2022-10-14T04:51:50.970Z,97369.00
2022-10-14T04:54:30.768Z,97368.00
2022-10-14T04:57:00.136Z,97374.00
2022-10-14T04:59:27.188Z,97374.00
2022-10-14T05:02:19.743Z,97359.00
2022-10-14T05:04:55.339Z,97364.00
2022-10-14T05:07:22.388Z,97349.00
2022-10-14T05:09:56.669Z,97350.00
2022-10-14T05:12:38.552Z,97354.00
2022-10-14T05:15:07.210Z,97345.00
2022-10-14T05:17:44.373Z,97356.00
2022-10-14T05:20:13.947Z,97359.00
2022-10-14T05:22:45.668Z,97364.00
2022-10-14T05:25:12.892Z,97348.00
2022-10-14T05:27:40.344Z,97352.00
2022-10-14T05:30:09.091Z,97355.00
2022-10-14T05:32:41.285Z,97337.00
2022-10-14T05:35:10.448Z,97354.00
2022-10-14T05:37:39.914Z,97353.00
2022-10-14T05:40:08.579Z,97344.00
2022-10-14T05:42:37.063Z,97352.00
2022-10-14T05:45:05.493Z,97344.00
2022-10-14T05:47:36.282Z,97344.00
2022-10-14T05:50:12.498Z,97349.00
2022-10-14T05:52:43.408Z,97345.00
2022-10-14T05:55:22.351Z,97338.00
2022-10-14T05:57:56.520Z,97352.00
2022-10-14T06:00:27.963Z,97329.00
2022-10-14T06:03:02.242Z,97343.00
2022-10-14T06:05:29.499Z,97338.00
2022-10-14T06:07:56.505Z,97335.00
2022-10-14T06:10:23.561Z,97335.00
2022-10-14T06:12:50.445Z,97348.00
2022-10-14T06:15:17.358Z,97335.00
2022-10-14T06:17:44.548Z,97349.00
2022-10-14T06:20:11.651Z,97344.00
2022-10-14T06:22:38.807Z,97354.00
2022-10-14T06:25:06.242Z,97338.00
2022-10-14T06:27:33.316Z,97361.00
2022-10-14T06:30:00.157Z,97355.00
2022-10-14T06:32:27.534Z,97335.00
2022-10-14T06:34:54.370Z,97329.00
2022-10-14T06:37:21.189Z,97335.00
2022-10-14T06:39:48.085Z,97330.00
2022-10-14T06:42:14.928Z,97345.00
2022-10-14T06:44:41.812Z,97333.00
2022-10-14T06:47:09.000Z,97340.00
2022-10-14T06:49:35.909Z,97326.00
2022-10-14T06:52:03.196Z,97328.00
2022-10-14T06:54:30.059Z,97315.00
2022-10-14T06:56:56.838Z,97327.00
2022-10-14T06:59:23.873Z,97314.00
2022-10-14T07:01:52.110Z,97319.00
2022-10-14T07:04:19.018Z,97326.00
2022-10-14T07:06:45.866Z,97318.00
2022-10-14T07:09:12.700Z,97315.00
2022-10-14T07:11:39.502Z,97310.00
2022-10-14T07:14:06.596Z,97330.00
2022-10-14T07:16:33.522Z,97327.00
2022-10-14T07:19:00.487Z,97331.00
2022-10-14T07:21:27.283Z,97315.00
2022-10-14T07:23:55.439Z,97320.00
2022-10-14T07:26:22.298Z,97306.00
2022-10-14T07:28:49.473Z,97325.00
2022-10-14T07:31:16.329Z,97320.00
2022-10-14T07:33:43.264Z,97323.00
2022-10-14T07:36:17.113Z,97328.00
2022-10-14T07:38:46.113Z,97320.00
2022-10-14T07:41:19.927Z,97319.00
2022-10-14T07:44:05.492Z,97325.00
2022-10-14T07:46:37.003Z,97327.00
2022-10-14T07:49:22.631Z,97308.00
2022-10-14T07:51:49.642Z,97327.00
2022-10-14T07:54:23.934Z,97315.00
2022-10-14T07:56:51.415Z,97313.00
2022-10-14T07:59:20.739Z,97326.00
2022-10-14T08:01:50.089Z,97325.00
2022-10-14T08:04:17.931Z,97323.00
2022-10-14T08:06:48.126Z,97305.00
2022-10-14T08:09:15.306Z,97311.00
2022-10-14T08:11:43.585Z,97303.00
2022-10-14T08:14:11.250Z,97306.00
2022-10-14T08:16:39.412Z,97309.00
2022-10-14T08:19:14.265Z,97323.00
2022-10-14T08:21:43.477Z,97323.00
2022-10-14T08:24:10.657Z,97322.00
2022-10-14T08:26:56.845Z,97327.00
2022-10-14T08:29:24.254Z,97315.00
2022-10-14T08:31:54.031Z,97324.00
2022-10-14T08:34:21.728Z,97330.00
2022-10-14T08:36:48.982Z,97321.00
2022-10-14T08:39:19.213Z,97312.00
2022-10-14T08:42:07.935Z,97325.00
2022-10-14T08:45:15.284Z,97326.00
2022-10-14T08:47:46.303Z,97311.00
2022-10-14T08:50:38.597Z,97304.00
2022-10-14T08:53:24.546Z,97299.00
2022-10-14T08:56:00.466Z,97306.00
2022-10-14T08:58:35.670Z,97316.00
2022-10-14T09:01:33.126Z,97306.00
2022-10-14T09:04:05.921Z,97291.00
2022-10-14T09:06:38.298Z,97284.00
2022-10-14T09:09:31.557Z,97282.00
2022-10-14T09:12:07.211Z,97289.00
2022-10-14T09:14:38.757Z,97267.00
2022-10-14T09:17:19.015Z,97264.00
2022-10-14T09:19:55.383Z,97281.00
2022-10-14T09:22:24.245Z,97275.00
2022-10-14T09:24:51.234Z,97269.00
2022-10-14T09:27:23.127Z,97262.00
2022-10-14T09:30:01.296Z,97263.00
2022-10-14T09:32:39.621Z,97261.00
2022-10-14T09:35:18.934Z,97262.00
2022-10-14T09:37:45.991Z,97262.00
2022-10-14T09:40:13.053Z,97261.00
2022-10-14T09:43:10.468Z,97258.00
2022-10-14T09:46:07.758Z,97258.00
2022-10-14T09:48:48.639Z,97261.00
2022-10-14T09:51:30.842Z,97248.00
2022-10-14T09:54:04.473Z,97247.00
2022-10-14T09:56:41.602Z,97252.00
2022-10-14T09:59:22.136Z,97254.00
2022-10-14T10:01:53.002Z,97254.00
2022-10-14T10:04:32.124Z,97263.00
2022-10-14T10:07:04.419Z,97254.00
2022-10-14T10:09:31.541Z,97258.00
2022-10-14T10:11:58.552Z,97254.00
2022-10-14T10:14:33.033Z,97243.00
2022-10-14T10:17:09.726Z,97244.00
2022-10-14T10:19:51.376Z,97239.00
2022-10-14T10:22:28.252Z,97232.00
2022-10-14T10:25:01.093Z,97232.00
2022-10-14T10:27:42.308Z,97212.00
2022-10-14T10:30:27.215Z,97212.00
2022-10-14T10:33:35.883Z,97227.00
2022-10-14T10:36:12.778Z,97215.00
2022-10-14T10:39:12.651Z,97204.00
2022-10-14T10:42:04.277Z,97205.00
2022-10-14T10:44:58.745Z,97209.00
2022-10-14T10:47:33.908Z,97197.00
2022-10-14T10:50:17.903Z,97188.00
2022-10-14T10:53:35.911Z,97198.00
2022-10-14T10:56:38.676Z,97196.00
2022-10-14T10:59:33.399Z,97183.00
2022-10-14T11:02:12.227Z,97186.00
2022-10-14T11:05:04.794Z,97195.00
2022-10-14T11:08:41.616Z,97172.00
2022-10-14T11:11:49.514Z,97182.00
2022-10-14T11:14:37.040Z,97168.00
2022-10-14T11:17:28.250Z,97165.00
2022-10-14T11:20:36.834Z,97161.00
2022-10-14T11:23:35.263Z,97135.00
2022-10-14T11:27:02.360Z,97153.00
2022-10-14T11:30:08.963Z,97153.00
2022-10-14T11:33:05.509Z,97148.00
2022-10-14T11:35:48.214Z,97139.00
2022-10-14T11:38:37.719Z,97124.00
2022-10-14T11:41:26.332Z,97121.00
2022-10-14T11:47:09.947Z,97129.00
2022-10-14T11:50:01.983Z,97111.00
2022-10-14T11:52:40.144Z,97117.00
2022-10-14T11:55:17.818Z,97129.00
2022-10-14T11:57:50.270Z,97115.00
2022-10-14T12:00:55.930Z,97112.00
2022-10-14T12:04:02.810Z,97106.00
2022-10-14T12:06:48.851Z,97109.00
2022-10-14T12:09:45.827Z,97110.00
2022-10-14T12:12:19.093Z,97097.00
2022-10-14T12:15:02.015Z,97099.00
2022-10-14T12:17:55.945Z,97072.00
2022-10-14T12:20:44.672Z,97093.00
2022-10-14T12:23:29.374Z,97078.00
2022-10-14T12:26:12.908Z,97078.00
2022-10-14T12:28:40.655Z,97072.00
2022-10-14T12:31:40.150Z,97079.00
2022-10-14T12:34:15.821Z,97077.00
2022-10-14T12:36:46.663Z,97067.00
2022-10-14T12:39:19.648Z,97066.00
2022-10-14T12:42:02.225Z,97075.00
2022-10-14T12:44:51.980Z,97070.00
2022-10-14T12:47:28.946Z,97074.00
2022-10-14T12:49:59.378Z,97066.00
2022-10-14T12:52:32.425Z,97072.00
2022-10-14T12:55:05.142Z,97065.00
2022-10-14T12:57:38.669Z,97082.00
2022-10-14T13:00:23.959Z,97075.00
2022-10-14T13:03:00.280Z,97068.00
2022-10-14T13:05:33.528Z,97053.00
2022-10-14T13:08:15.972Z,97065.00
2022-10-14T13:10:55.192Z,97056.00
2022-10-14T13:13:51.495Z,97052.00
2022-10-14T13:16:21.296Z,97043.00
2022-10-14T13:19:01.012Z,97042.00
2022-10-14T13:21:36.802Z,97047.00
2022-10-14T13:24:17.730Z,97047.00
2022-10-14T13:26:53.476Z,97047.00
2022-10-14T13:29:20.229Z,97033.00
2022-10-14T13:32:18.753Z,97012.00
2022-10-14T13:35:06.105Z,97013.00
2022-10-14T13:37:43.291Z,97009.00
2022-10-14T13:40:30.122Z,96992.00
2022-10-14T13:43:19.935Z,96984.00
2022-10-14T13:45:54.725Z,96991.00
2022-10-14T13:48:35.502Z,96996.00
2022-10-14T13:51:24.666Z,97004.00
2022-10-14T13:54:22.089Z,96979.00
2022-10-14T13:57:29.010Z,96980.00
2022-10-14T14:00:38.090Z,96991.00
2022-10-14T14:02:42.471Z,96987.00
2022-10-14T14:05:17.242Z,96970.00
2022-10-14T14:10:34.499Z,96962.00
2022-10-14T14:13:05.252Z,96972.00
2022-10-14T14:15:32.772Z,96970.00
2022-10-14T14:17:59.665Z,96956.00
2022-10-14T14:20:33.848Z,96966.00
2022-10-14T14:23:00.762Z,96958.00
2022-10-14T14:25:36.935Z,96963.00
2022-10-14T14:28:15.296Z,96968.00
2022-10-14T14:30:55.135Z,96963.00
2022-10-14T14:33:48.817Z,96966.00
2022-10-14T14:36:27.883Z,96966.00
2022-10-14T14:39:05.933Z,96967.00
2022-10-14T14:41:33.207Z,96956.00
2022-10-14T14:44:24.625Z,96972.00
2022-10-14T14:46:59.557Z,96969.00
2022-10-14T14:49:31.787Z,96974.00
2022-10-14T14:52:00.782Z,96974.00
2022-10-14T14:54:28.951Z,96965.00
2022-10-14T14:57:08.407Z,96959.00
2022-10-14T14:59:42.278Z,96953.00
2022-10-14T15:02:22.410Z,96951.00
2022-10-14T15:05:10.420Z,96948.00
2022-10-14T15:07:37.955Z,96950.00
2022-10-14T15:10:08.323Z,96943.00
2022-10-14T15:12:53.456Z,96939.00
2022-10-14T15:15:34.144Z,96916.00
2022-10-14T15:18:28.752Z,96937.00
2022-10-14T15:21:19.237Z,96936.00
2022-10-14T15:23:49.407Z,96934.00
2022-10-14T15:26:37.974Z,96933.00
2022-10-14T15:29:08.649Z,96933.00
2022-10-14T15:31:38.123Z,96941.00
2022-10-14T15:34:12.382Z,96929.00
2022-10-14T15:36:40.097Z,96936.00
2022-10-14T15:39:13.747Z,96935.00
2022-10-14T15:41:43.296Z,96941.00
2022-10-14T15:44:10.114Z,96938.00
2022-10-14T15:46:56.939Z,96911.00
2022-10-14T15:49:32.338Z,96922.00
2022-10-14T15:51:59.179Z,96925.00
2022-10-14T15:54:27.522Z,96922.00
2022-10-14T15:59:28.170Z,96910.00
2022-10-14T16:01:55.150Z,96912.00
2022-10-14T16:04:27.655Z,96901.00
2022-10-14T16:06:57.470Z,96895.00
2022-10-14T16:09:27.569Z,96894.00
2022-10-14T16:11:57.656Z,96888.00
2022-10-14T16:14:28.324Z,96890.00
2022-10-14T16:16:57.546Z,96892.00
2022-10-14T16:19:24.720Z,96895.00
2022-10-14T16:21:51.556Z,96895.00
2022-10-14T16:24:21.760Z,96904.00
2022-10-14T16:26:50.252Z,96886.00
2022-10-14T16:29:19.164Z,96906.00
2022-10-14T16:31:51.180Z,96884.00
2022-10-14T16:34:21.018Z,96885.00
2022-10-14T16:36:49.209Z,96876.00
2022-10-14T16:39:17.804Z,96887.00
2022-10-14T16:41:45.296Z,96892.00
2022-10-14T16:44:25.942Z,96882.00
2022-10-14T16:47:13.179Z,96885.00
2022-10-14T16:49:40.716Z,96891.00
2022-10-14T16:52:08.882Z,96900.00
2022-10-14T16:54:35.975Z,96890.00
2022-10-14T16:57:04.061Z,96897.00
2022-10-14T16:59:31.987Z,96898.00
2022-10-14T17:02:00.572Z,96901.00
2022-10-14T17:04:27.721Z,96914.00
2022-10-14T17:06:58.367Z,96911.00
2022-10-14T17:12:02.156Z,96907.00
2022-10-14T17:14:31.113Z,96904.00
2022-10-14T17:16:59.782Z,96897.00
2022-10-14T17:19:27.465Z,96901.00
2022-10-14T17:21:54.383Z,96902.00
2022-10-14T17:24:22.047Z,96891.00
2022-10-14T17:26:49.202Z,96895.00
2022-10-14T17:29:16.331Z,96902.00
2022-10-14T17:31:45.308Z,96892.00
2022-10-14T17:34:12.663Z,96896.00
2022-10-14T17:36:41.658Z,96904.00
2022-10-14T17:39:18.701Z,96916.00
2022-10-14T17:41:51.965Z,96904.00
2022-10-14T17:44:19.356Z,96890.00
2022-10-14T17:46:46.262Z,96904.00
2022-10-14T17:49:13.118Z,96902.00
2022-10-14T17:51:39.998Z,96880.00
2022-10-14T17:54:11.165Z,96902.00
2022-10-14T17:56:39.249Z,96905.00
2022-10-14T17:59:11.149Z,96879.00
2022-10-14T18:04:25.608Z,96879.00
2022-10-14T18:06:54.012Z,96882.00
2022-10-14T18:09:21.146Z,96876.00
2022-10-14T18:14:38.887Z,96876.00
2022-10-14T18:17:06.324Z,96875.00
2022-10-14T18:19:33.699Z,96874.00
2022-10-14T18:22:02.881Z,96882.00
2022-10-14T18:24:29.903Z,96878.00
2022-10-14T18:26:56.774Z,96868.00
2022-10-14T18:29:24.569Z,96874.00
2022-10-14T18:34:25.300Z,96875.00
2022-10-14T18:36:52.136Z,96871.00
2022-10-14T18:39:20.362Z,96870.00
2022-10-14T18:41:47.629Z,96875.00
2022-10-14T18:44:15.114Z,96873.00
2022-10-14T18:46:42.854Z,96863.00
2022-10-14T18:49:11.951Z,96876.00
2022-10-14T18:51:40.426Z,96885.00
2022-10-14T18:54:16.777Z,96861.00
2022-10-14T18:56:45.026Z,96861.00
2022-10-14T18:59:23.083Z,96858.00
2022-10-14T19:01:55.185Z,96843.00
2022-10-14T19:04:26.633Z,96839.00
2022-10-14T19:06:54.115Z,96858.00
2022-10-14T19:09:24.749Z,96844.00
2022-10-14T19:11:52.715Z,96840.00
2022-10-14T19:14:20.659Z,96843.00
2022-10-14T19:16:49.393Z,96834.00
2022-10-14T19:19:20.276Z,96838.00
2022-10-14T19:21:54.063Z,96826.00
2022-10-14T19:24:21.060Z,96845.00
2022-10-14T19:26:48.727Z,96821.00
2022-10-14T19:29:16.566Z,96835.00
2022-10-14T19:31:44.322Z,96833.00
2022-10-14T19:34:15.465Z,96830.00
2022-10-14T19:36:44.357Z,96829.00
2022-10-14T19:39:15.392Z,96836.00
2022-10-14T19:41:44.308Z,96845.00
2022-10-14T19:44:13.970Z,96842.00
2022-10-14T19:46:41.677Z,96830.00
2022-10-14T19:49:12.987Z,96823.00
2022-10-14T19:51:39.948Z,96819.00
2022-10-14T19:54:06.965Z,96837.00
2022-10-14T19:56:33.876Z,96832.00
2022-10-14T19:59:02.049Z,96842.00
2022-10-14T20:01:30.971Z,96827.00
2022-10-14T20:04:02.055Z,96827.00
2022-10-14T20:06:37.624Z,96822.00
2022-10-14T20:09:05.665Z,96813.00
2022-10-14T20:11:33.081Z,96811.00
2022-10-14T20:14:00.773Z,96797.00
2022-10-14T20:16:27.743Z,96783.00
2022-10-14T20:18:55.942Z,96796.00
2022-10-14T20:21:23.589Z,96798.00
2022-10-14T20:23:50.788Z,96801.00
2022-10-14T20:26:20.927Z,96784.00
2022-10-14T20:28:49.222Z,96812.00
2022-10-14T20:31:20.415Z,96790.00
2022-10-14T20:33:48.057Z,96796.00
2022-10-14T20:36:18.846Z,96791.00
2022-10-14T20:38:47.292Z,96791.00
2022-10-14T20:41:24.150Z,96800.00
2022-10-14T20:43:52.847Z,96794.00
2022-10-14T20:46:19.877Z,96786.00
2022-10-14T20:48:46.805Z,96806.00
2022-10-14T20:51:17.908Z,96814.00
2022-10-14T20:53:44.822Z,96792.00
2022-10-14T20:56:14.031Z,96789.00
2022-10-14T20:58:41.423Z,96793.00
2022-10-14T21:01:15.907Z,96784.00
2022-10-14T21:03:45.548Z,96786.00
2022-10-14T21:06:18.303Z,96787.00
2022-10-14T21:08:46.274Z,96797.00
2022-10-14T21:11:16.728Z,96796.00
2022-10-14T21:13:52.052Z,96783.00
2022-10-14T21:16:37.506Z,96797.00
2022-10-14T21:19:09.823Z,96783.00
2022-10-14T21:21:45.258Z,96770.00
2022-10-14T21:24:18.140Z,96779.00
2022-10-14T21:26:50.445Z,96767.00
2022-10-14T21:29:19.948Z,96755.00
2022-10-14T21:31:47.889Z,96764.00
2022-10-14T21:34:15.976Z,96763.00
2022-10-14T21:36:43.143Z,96773.00
2022-10-14T21:39:16.004Z,96778.00
2022-10-14T21:41:43.633Z,96764.00
2022-10-14T21:44:17.497Z,96767.00
2022-10-14T21:46:44.458Z,96780.00
2022-10-14T21:49:12.203Z,96777.00
2022-10-14T21:51:39.656Z,96764.00
2022-10-14T21:54:07.252Z,96778.00
2022-10-14T21:56:34.244Z,96769.00
2022-10-14T21:59:01.057Z,96772.00
2022-10-14T22:01:29.954Z,96770.00
2022-10-14T22:04:00.601Z,96771.00
2022-10-14T22:06:27.928Z,96768.00
2022-10-14T22:08:57.969Z,96764.00
2022-10-14T22:11:29.953Z,96776.00
2022-10-14T22:14:00.346Z,96763.00
2022-10-14T22:16:29.133Z,96753.00
2022-10-14T22:18:59.992Z,96762.00
2022-10-14T22:21:31.126Z,96763.00
2022-10-14T22:23:59.015Z,96746.00
2022-10-14T22:26:28.371Z,96756.00
2022-10-14T22:29:01.889Z,96739.00
2022-10-14T22:31:32.605Z,96740.00
2022-10-14T22:34:03.315Z,96736.00
2022-10-14T22:36:32.432Z,96734.00
2022-10-14T22:39:01.365Z,96745.00
2022-10-14T22:41:34.921Z,96723.00
2022-10-14T22:44:04.239Z,96734.00
2022-10-14T22:46:34.753Z,96747.00
2022-10-14T22:49:02.101Z,96753.00
2022-10-14T22:51:34.268Z,96739.00
2022-10-14T22:54:01.530Z,96747.00
2022-10-14T22:56:31.647Z,96740.00
2022-10-14T22:59:03.185Z,96745.00
2022-10-14T23:01:30.702Z,96727.00
2022-10-14T23:03:59.504Z,96720.00
2022-10-14T23:06:27.429Z,96734.00
2022-10-14T23:08:55.023Z,96739.00
2022-10-14T23:11:24.867Z,96743.00
2022-10-14T23:13:52.895Z,96731.00
2022-10-14T23:16:23.961Z,96743.00
2022-10-14T23:18:52.246Z,96741.00
2022-10-14T23:21:20.179Z,96723.00
2022-10-14T23:23:48.906Z,96736.00
2022-10-14T23:26:22.966Z,96739.00
2022-10-14T23:29:00.909Z,96743.00
2022-10-14T23:31:33.040Z,96746.00
2022-10-14T23:34:04.305Z,96729.00
2022-10-14T23:36:31.145Z,96750.00
2022-10-14T23:38:58.912Z,96739.00
2022-10-14T23:41:26.588Z,96739.00
2022-10-14T23:43:54.111Z,96740.00
2022-10-14T23:46:21.121Z,96735.00
2022-10-14T23:49:00.688Z,96731.00
2022-10-14T23:51:36.318Z,96739.00
2022-10-14T23:54:04.160Z,96747.00
2022-10-14T23:56:31.031Z,96752.00
2022-10-14T23:58:58.491Z,96756.00
